sensor_id;sensor_type;location;lat;lon;timestamp;pressure;altitude;pressure_sealevel;temperature;humidity
60817;BME280;51921;51.518;-3.188;2023-02-04T00:01:02;103316.69;;;7.99;100.00
60817;BME280;51921;51.518;-3.188;2023-02-04T00:03:27;103314.55;;;7.96;100.00
60817;BME280;51921;51.518;-3.188;2023-02-04T00:05:53;103315.81;;;9.04;100.00
60817;BME280;51921;51.518;-3.188;2023-02-04T00:08:18;103316.74;;;7.16;100.00
60817;BME280;51921;51.518;-3.188;2023-02-04T00:10:49;103320.21;;;8.09;100.00
60817;BME280;51921;51.518;-3.188;2023-02-04T00:13:09;103320.38;;;8.16;100.00
60817;BME280;51921;51.518;-3.188;2023-02-04T00:15:35;103319.99;;;8.61;100.00
60817;BME280;51921;51.518;-3.188;2023-02-04T00:18:00;103316.80;;;8.87;100.00
60817;BME280;51921;51.518;-3.188;2023-02-04T00:20:25;103322.43;;;9.15;100.00
60817;BME280;51921;51.518;-3.188;2023-02-04T00:22:51;103321.10;;;9.15;100.00
60817;BME280;51921;51.518;-3.188;2023-02-04T00:25:16;103324.15;;;9.29;100.00
60817;BME280;51921;51.518;-3.188;2023-02-04T00:27:41;103325.93;;;9.23;100.00
60817;BME280;51921;51.518;-3.188;2023-02-04T00:30:08;103323.72;;;9.35;100.00
60817;BME280;51921;51.518;-3.188;2023-02-04T00:32:33;103320.23;;;9.04;100.00
60817;BME280;51921;51.518;-3.188;2023-02-04T00:34:58;103319.58;;;9.58;100.00
60817;BME280;51921;51.518;-3.188;2023-02-04T00:37:23;103317.90;;;8.70;100.00
60817;BME280;51921;51.518;-3.188;2023-02-04T00:39:49;103319.51;;;8.99;100.00
60817;BME280;51921;51.518;-3.188;2023-02-04T00:42:14;103321.87;;;9.44;100.00
60817;BME280;51921;51.518;-3.188;2023-02-04T00:44:40;103323.16;;;9.25;100.00
60817;BME280;51921;51.518;-3.188;2023-02-04T00:47:05;103320.99;;;8.96;100.00
60817;BME280;51921;51.518;-3.188;2023-02-04T00:49:31;103322.42;;;9.43;100.00
60817;BME280;51921;51.518;-3.188;2023-02-04T00:51:56;103322.02;;;9.41;100.00
60817;BME280;51921;51.518;-3.188;2023-02-04T00:54:21;103320.15;;;9.35;100.00
60817;BME280;51921;51.518;-3.188;2023-02-04T00:56:47;103322.30;;;8.92;100.00
60817;BME280;51921;51.518;-3.188;2023-02-04T00:59:12;103322.13;;;9.27;100.00
60817;BME280;51921;51.518;-3.188;2023-02-04T01:01:38;103323.47;;;9.32;100.00
60817;BME280;51921;51.518;-3.188;2023-02-04T01:04:04;103322.91;;;9.22;100.00
60817;BME280;51921;51.518;-3.188;2023-02-04T01:08:54;103328.88;;;9.77;100.00
60817;BME280;51921;51.518;-3.188;2023-02-04T01:11:20;103326.49;;;8.81;100.00
60817;BME280;51921;51.518;-3.188;2023-02-04T01:13:45;103324.28;;;9.59;100.00
60817;BME280;51921;51.518;-3.188;2023-02-04T01:16:11;103323.41;;;8.92;100.00
60817;BME280;51921;51.518;-3.188;2023-02-04T01:18:36;103323.25;;;9.19;100.00
60817;BME280;51921;51.518;-3.188;2023-02-04T01:21:02;103329.23;;;9.33;100.00
60817;BME280;51921;51.518;-3.188;2023-02-04T01:23:27;103335.34;;;9.45;100.00
60817;BME280;51921;51.518;-3.188;2023-02-04T01:25:52;103336.65;;;9.58;100.00
60817;BME280;51921;51.518;-3.188;2023-02-04T01:28:23;103337.85;;;8.74;100.00
60817;BME280;51921;51.518;-3.188;2023-02-04T01:30:49;103341.31;;;9.00;100.00
60817;BME280;51921;51.518;-3.188;2023-02-04T01:33:09;103335.75;;;7.32;100.00
60817;BME280;51921;51.518;-3.188;2023-02-04T01:35:34;103340.68;;;8.73;100.00
60817;BME280;51921;51.518;-3.188;2023-02-04T01:38:00;103336.57;;;9.20;100.00
60817;BME280;51921;51.518;-3.188;2023-02-04T01:40:26;103342.62;;;9.11;100.00
60817;BME280;51921;51.518;-3.188;2023-02-04T01:42:51;103343.64;;;8.68;100.00
60817;BME280;51921;51.518;-3.188;2023-02-04T01:45:16;103345.41;;;7.92;100.00
60817;BME280;51921;51.518;-3.188;2023-02-04T01:50:10;103346.97;;;9.08;100.00
60817;BME280;51921;51.518;-3.188;2023-02-04T01:52:35;103349.21;;;8.63;100.00
60817;BME280;51921;51.518;-3.188;2023-02-04T01:54:58;103349.01;;;9.48;100.00
60817;BME280;51921;51.518;-3.188;2023-02-04T01:57:24;103353.66;;;8.94;100.00
60817;BME280;51921;51.518;-3.188;2023-02-04T01:59:51;103358.40;;;8.48;100.00
60817;BME280;51921;51.518;-3.188;2023-02-04T02:04:40;103355.66;;;9.29;100.00
60817;BME280;51921;51.518;-3.188;2023-02-04T02:07:06;103357.29;;;8.70;100.00
60817;BME280;51921;51.518;-3.188;2023-02-04T02:09:31;103354.05;;;9.53;100.00
60817;BME280;51921;51.518;-3.188;2023-02-04T02:11:57;103354.54;;;8.81;100.00
60817;BME280;51921;51.518;-3.188;2023-02-04T02:14:22;103351.15;;;9.59;100.00
60817;BME280;51921;51.518;-3.188;2023-02-04T02:16:47;103352.57;;;8.81;100.00
60817;BME280;51921;51.518;-3.188;2023-02-04T02:21:43;103350.15;;;8.97;100.00
60817;BME280;51921;51.518;-3.188;2023-02-04T02:28:54;103348.95;;;8.79;100.00
60817;BME280;51921;51.518;-3.188;2023-02-04T02:31:21;103342.14;;;9.11;99.58
60817;BME280;51921;51.518;-3.188;2023-02-04T02:33:45;103346.42;;;9.58;97.28
60817;BME280;51921;51.518;-3.188;2023-02-04T02:36:11;103349.22;;;8.89;99.75
60817;BME280;51921;51.518;-3.188;2023-02-04T02:38:36;103348.81;;;8.82;96.67
60817;BME280;51921;51.518;-3.188;2023-02-04T02:41:02;103346.43;;;9.12;98.49
60817;BME280;51921;51.518;-3.188;2023-02-04T02:43:27;103350.86;;;8.62;98.56
60817;BME280;51921;51.518;-3.188;2023-02-04T02:45:54;103354.42;;;8.80;98.70
60817;BME280;51921;51.518;-3.188;2023-02-04T02:48:18;103354.74;;;9.50;94.41
60817;BME280;51921;51.518;-3.188;2023-02-04T02:50:43;103352.08;;;9.06;96.72
60817;BME280;51921;51.518;-3.188;2023-02-04T02:53:11;103351.14;;;9.04;96.38
60817;BME280;51921;51.518;-3.188;2023-02-04T02:55:34;103351.03;;;8.98;96.69
60817;BME280;51921;51.518;-3.188;2023-02-04T02:58:00;103348.22;;;8.53;98.53
60817;BME280;51921;51.518;-3.188;2023-02-04T03:00:28;103347.60;;;9.15;95.53
60817;BME280;51921;51.518;-3.188;2023-02-04T03:02:56;103354.26;;;8.31;98.70
60817;BME280;51921;51.518;-3.188;2023-02-04T03:05:16;103355.67;;;8.52;97.02
60817;BME280;51921;51.518;-3.188;2023-02-04T03:07:42;103359.12;;;8.52;98.33
60817;BME280;51921;51.518;-3.188;2023-02-04T03:10:07;103358.23;;;8.08;100.00
60817;BME280;51921;51.518;-3.188;2023-02-04T03:12:33;103361.10;;;8.17;100.00
60817;BME280;51921;51.518;-3.188;2023-02-04T03:14:58;103363.11;;;8.61;99.59
60817;BME280;51921;51.518;-3.188;2023-02-04T03:17:23;103359.01;;;8.05;96.65
60817;BME280;51921;51.518;-3.188;2023-02-04T03:19:48;103361.01;;;8.05;100.00
60817;BME280;51921;51.518;-3.188;2023-02-04T03:22:14;103367.80;;;8.27;100.00
60817;BME280;51921;51.518;-3.188;2023-02-04T03:24:39;103369.48;;;8.29;98.99
60817;BME280;51921;51.518;-3.188;2023-02-04T03:27:05;103366.58;;;7.96;99.62
60817;BME280;51921;51.518;-3.188;2023-02-04T03:29:30;103370.65;;;7.87;100.00
60817;BME280;51921;51.518;-3.188;2023-02-04T03:31:56;103367.88;;;7.77;100.00
60817;BME280;51921;51.518;-3.188;2023-02-04T03:34:21;103368.63;;;7.80;100.00
60817;BME280;51921;51.518;-3.188;2023-02-04T03:36:47;103368.32;;;8.80;97.31
60817;BME280;51921;51.518;-3.188;2023-02-04T03:39:12;103372.08;;;8.23;100.00
60817;BME280;51921;51.518;-3.188;2023-02-04T03:41:38;103366.72;;;7.23;100.00
60817;BME280;51921;51.518;-3.188;2023-02-04T03:44:03;103371.62;;;7.96;100.00
60817;BME280;51921;51.518;-3.188;2023-02-04T03:46:29;103372.09;;;7.80;100.00
60817;BME280;51921;51.518;-3.188;2023-02-04T03:48:54;103375.74;;;8.46;98.04
60817;BME280;51921;51.518;-3.188;2023-02-04T03:51:20;103373.05;;;8.06;99.14
60817;BME280;51921;51.518;-3.188;2023-02-04T03:53:45;103369.65;;;7.99;99.12
60817;BME280;51921;51.518;-3.188;2023-02-04T03:56:11;103369.07;;;8.34;100.00
60817;BME280;51921;51.518;-3.188;2023-02-04T03:58:36;103372.02;;;9.16;94.31
60817;BME280;51921;51.518;-3.188;2023-02-04T04:01:02;103376.36;;;8.16;98.53
60817;BME280;51921;51.518;-3.188;2023-02-04T04:03:27;103377.04;;;8.90;97.70
60817;BME280;51921;51.518;-3.188;2023-02-04T04:05:53;103377.08;;;8.60;96.55
60817;BME280;51921;51.518;-3.188;2023-02-04T04:08:18;103380.18;;;8.14;97.66
60817;BME280;51921;51.518;-3.188;2023-02-04T04:10:43;103384.17;;;7.61;99.24
60817;BME280;51921;51.518;-3.188;2023-02-04T04:13:09;103383.67;;;9.16;95.30
60817;BME280;51921;51.518;-3.188;2023-02-04T04:15:34;103383.83;;;8.40;95.14
60817;BME280;51921;51.518;-3.188;2023-02-04T04:18:00;103384.56;;;9.01;93.35
60817;BME280;51921;51.518;-3.188;2023-02-04T04:20:25;103381.60;;;8.71;93.50
60817;BME280;51921;51.518;-3.188;2023-02-04T04:22:51;103380.15;;;9.29;90.19
60817;BME280;51921;51.518;-3.188;2023-02-04T04:25:16;103379.86;;;9.44;90.15
60817;BME280;51921;51.518;-3.188;2023-02-04T04:27:42;103378.23;;;9.64;89.89
60817;BME280;51921;51.518;-3.188;2023-02-04T04:30:08;103380.34;;;9.68;88.90
60817;BME280;51921;51.518;-3.188;2023-02-04T04:32:32;103389.44;;;8.86;90.27
60817;BME280;51921;51.518;-3.188;2023-02-04T04:34:58;103386.45;;;9.26;90.56
60817;BME280;51921;51.518;-3.188;2023-02-04T04:37:23;103386.36;;;8.21;93.42
60817;BME280;51921;51.518;-3.188;2023-02-04T04:39:49;103385.72;;;7.68;100.00
60817;BME280;51921;51.518;-3.188;2023-02-04T04:42:14;103381.63;;;7.52;99.40
60817;BME280;51921;51.518;-3.188;2023-02-04T04:44:40;103384.87;;;8.16;97.89
60817;BME280;51921;51.518;-3.188;2023-02-04T04:47:05;103385.19;;;7.49;99.55
60817;BME280;51921;51.518;-3.188;2023-02-04T04:49:31;103383.15;;;7.00;100.00
60817;BME280;51921;51.518;-3.188;2023-02-04T04:51:56;103386.50;;;5.90;100.00
60817;BME280;51921;51.518;-3.188;2023-02-04T04:54:22;103386.19;;;6.19;100.00
60817;BME280;51921;51.518;-3.188;2023-02-04T04:56:47;103384.19;;;6.14;100.00
60817;BME280;51921;51.518;-3.188;2023-02-04T04:59:13;103382.17;;;6.78;100.00
60817;BME280;51921;51.518;-3.188;2023-02-04T05:01:38;103383.79;;;6.57;100.00
60817;BME280;51921;51.518;-3.188;2023-02-04T05:04:04;103384.05;;;5.49;100.00
60817;BME280;51921;51.518;-3.188;2023-02-04T05:06:29;103383.67;;;5.93;100.00
60817;BME280;51921;51.518;-3.188;2023-02-04T05:08:55;103388.01;;;6.79;100.00
60817;BME280;51921;51.518;-3.188;2023-02-04T05:11:20;103384.15;;;7.66;100.00
60817;BME280;51921;51.518;-3.188;2023-02-04T05:13:46;103380.87;;;6.28;100.00
60817;BME280;51921;51.518;-3.188;2023-02-04T05:16:12;103381.98;;;7.42;100.00
60817;BME280;51921;51.518;-3.188;2023-02-04T05:18:37;103380.80;;;7.00;100.00
60817;BME280;51921;51.518;-3.188;2023-02-04T05:21:03;103381.92;;;7.72;99.36
60817;BME280;51921;51.518;-3.188;2023-02-04T05:23:28;103382.73;;;8.35;93.85
60817;BME280;51921;51.518;-3.188;2023-02-04T05:25:53;103375.15;;;8.14;92.68
60817;BME280;51921;51.518;-3.188;2023-02-04T05:28:19;103377.92;;;8.42;91.05
60817;BME280;51921;51.518;-3.188;2023-02-04T05:30:45;103372.21;;;8.22;90.27
60817;BME280;51921;51.518;-3.188;2023-02-04T05:33:10;103377.07;;;8.79;89.79
60817;BME280;51921;51.518;-3.188;2023-02-04T05:35:35;103374.56;;;8.62;88.50
60817;BME280;51921;51.518;-3.188;2023-02-04T05:38:01;103375.97;;;9.14;86.20
60817;BME280;51921;51.518;-3.188;2023-02-04T05:40:26;103379.25;;;8.32;86.36
60817;BME280;51921;51.518;-3.188;2023-02-04T05:42:52;103378.95;;;8.69;85.15
60817;BME280;51921;51.518;-3.188;2023-02-04T05:45:18;103379.95;;;9.24;83.85
60817;BME280;51921;51.518;-3.188;2023-02-04T05:47:43;103381.35;;;9.39;83.84
60817;BME280;51921;51.518;-3.188;2023-02-04T05:50:09;103380.26;;;9.59;82.34
60817;BME280;51921;51.518;-3.188;2023-02-04T05:52:34;103377.22;;;10.29;77.77
60817;BME280;51921;51.518;-3.188;2023-02-04T05:54:59;103380.22;;;8.76;81.54
60817;BME280;51921;51.518;-3.188;2023-02-04T05:57:25;103380.45;;;9.03;82.20
60817;BME280;51921;51.518;-3.188;2023-02-04T05:59:50;103377.93;;;9.51;81.70
60817;BME280;51921;51.518;-3.188;2023-02-04T06:02:16;103381.00;;;9.62;81.54
60817;BME280;51921;51.518;-3.188;2023-02-04T06:04:41;103379.50;;;9.64;81.30
60817;BME280;51921;51.518;-3.188;2023-02-04T06:07:07;103378.74;;;9.69;81.15
60817;BME280;51921;51.518;-3.188;2023-02-04T06:09:32;103378.09;;;9.22;82.79
60817;BME280;51921;51.518;-3.188;2023-02-04T06:11:58;103375.14;;;9.37;81.91
60817;BME280;51921;51.518;-3.188;2023-02-04T06:14:23;103376.31;;;9.45;81.03
60817;BME280;51921;51.518;-3.188;2023-02-04T06:16:49;103373.30;;;9.66;79.65
60817;BME280;51921;51.518;-3.188;2023-02-04T06:19:14;103376.73;;;9.72;79.53
60817;BME280;51921;51.518;-3.188;2023-02-04T06:21:39;103376.86;;;9.99;79.12
60817;BME280;51921;51.518;-3.188;2023-02-04T06:24:09;103377.12;;;10.13;79.92
60817;BME280;51921;51.518;-3.188;2023-02-04T06:26:30;103378.79;;;9.77;80.76
60817;BME280;51921;51.518;-3.188;2023-02-04T06:28:56;103382.36;;;9.07;79.52
60817;BME280;51921;51.518;-3.188;2023-02-04T06:31:22;103378.93;;;9.90;75.56
60817;BME280;51921;51.518;-3.188;2023-02-04T06:33:48;103381.63;;;8.77;79.71
60817;BME280;51921;51.518;-3.188;2023-02-04T06:36:13;103382.75;;;10.16;77.21
60817;BME280;51921;51.518;-3.188;2023-02-04T06:38:38;103386.98;;;8.06;82.48
60817;BME280;51921;51.518;-3.188;2023-02-04T06:41:03;103385.09;;;9.04;80.43
60817;BME280;51921;51.518;-3.188;2023-02-04T06:43:29;103388.25;;;9.37;81.12
60817;BME280;51921;51.518;-3.188;2023-02-04T06:45:54;103391.46;;;8.81;81.11
60817;BME280;51921;51.518;-3.188;2023-02-04T06:48:20;103397.20;;;8.14;86.08
60817;BME280;51921;51.518;-3.188;2023-02-04T06:50:45;103397.35;;;7.32;90.00
60817;BME280;51921;51.518;-3.188;2023-02-04T06:53:10;103397.90;;;7.62;90.34
60817;BME280;51921;51.518;-3.188;2023-02-04T06:55:36;103400.58;;;8.51;86.96
60817;BME280;51921;51.518;-3.188;2023-02-04T06:58:01;103403.80;;;7.97;88.62
60817;BME280;51921;51.518;-3.188;2023-02-04T07:00:27;103404.42;;;8.80;86.85
60817;BME280;51921;51.518;-3.188;2023-02-04T07:02:52;103405.32;;;7.10;94.08
60817;BME280;51921;51.518;-3.188;2023-02-04T07:05:18;103409.23;;;7.48;95.40
60817;BME280;51921;51.518;-3.188;2023-02-04T07:07:44;103414.40;;;6.63;95.65
60817;BME280;51921;51.518;-3.188;2023-02-04T07:10:09;103412.88;;;8.14;92.64
60817;BME280;51921;51.518;-3.188;2023-02-04T07:12:34;103413.85;;;9.10;88.64
60817;BME280;51921;51.518;-3.188;2023-02-04T07:15:00;103416.98;;;9.08;88.06
60817;BME280;51921;51.518;-3.188;2023-02-04T07:17:26;103418.58;;;8.62;87.28
60817;BME280;51921;51.518;-3.188;2023-02-04T07:19:51;103420.65;;;9.47;84.81
60817;BME280;51921;51.518;-3.188;2023-02-04T07:22:16;103421.70;;;8.86;83.81
60817;BME280;51921;51.518;-3.188;2023-02-04T07:24:42;103424.87;;;8.28;90.26
60817;BME280;51921;51.518;-3.188;2023-02-04T07:27:08;103428.32;;;8.67;87.75
60817;BME280;51921;51.518;-3.188;2023-02-04T07:29:33;103424.29;;;8.64;86.33
60817;BME280;51921;51.518;-3.188;2023-02-04T07:31:58;103420.57;;;8.90;85.24
60817;BME280;51921;51.518;-3.188;2023-02-04T07:34:23;103420.19;;;9.97;82.41
60817;BME280;51921;51.518;-3.188;2023-02-04T07:36:49;103423.90;;;8.95;82.23
60817;BME280;51921;51.518;-3.188;2023-02-04T07:39:15;103421.23;;;6.94;90.95
60817;BME280;51921;51.518;-3.188;2023-02-04T07:41:40;103426.52;;;7.91;92.38
60817;BME280;51921;51.518;-3.188;2023-02-04T07:44:06;103426.60;;;9.38;84.79
60817;BME280;51921;51.518;-3.188;2023-02-04T07:46:31;103431.03;;;8.72;88.51
60817;BME280;51921;51.518;-3.188;2023-02-04T07:48:56;103427.66;;;8.81;85.68
60817;BME280;51921;51.518;-3.188;2023-02-04T07:51:22;103429.99;;;9.95;82.90
60817;BME280;51921;51.518;-3.188;2023-02-04T07:53:47;103433.62;;;9.06;84.10
60817;BME280;51921;51.518;-3.188;2023-02-04T07:56:12;103438.71;;;9.57;81.66
60817;BME280;51921;51.518;-3.188;2023-02-04T07:58:38;103436.99;;;8.82;82.01
60817;BME280;51921;51.518;-3.188;2023-02-04T08:01:04;103439.87;;;8.70;80.09
60817;BME280;51921;51.518;-3.188;2023-02-04T08:03:29;103440.83;;;9.40;79.37
60817;BME280;51921;51.518;-3.188;2023-02-04T08:05:54;103445.63;;;8.90;78.58
60817;BME280;51921;51.518;-3.188;2023-02-04T08:08:20;103447.56;;;10.85;73.43
60817;BME280;51921;51.518;-3.188;2023-02-04T08:10:45;103446.24;;;9.99;72.52
60817;BME280;51921;51.518;-3.188;2023-02-04T08:13:11;103447.07;;;9.42;75.83
60817;BME280;51921;51.518;-3.188;2023-02-04T08:15:36;103450.15;;;9.52;77.92
60817;BME280;51921;51.518;-3.188;2023-02-04T08:18:02;103446.18;;;9.62;77.33
60817;BME280;51921;51.518;-3.188;2023-02-04T08:20:27;103444.17;;;8.34;78.37
60817;BME280;51921;51.518;-3.188;2023-02-04T08:22:53;103440.63;;;8.15;84.39
60817;BME280;51921;51.518;-3.188;2023-02-04T08:25:19;103441.53;;;7.76;86.14
60817;BME280;51921;51.518;-3.188;2023-02-04T08:27:44;103442.43;;;8.09;87.24
60817;BME280;51921;51.518;-3.188;2023-02-04T08:30:10;103443.19;;;8.15;86.38
60817;BME280;51921;51.518;-3.188;2023-02-04T08:32:35;103446.87;;;8.84;84.38
60817;BME280;51921;51.518;-3.188;2023-02-04T08:35:01;103448.47;;;9.48;81.05
60817;BME280;51921;51.518;-3.188;2023-02-04T08:37:26;103454.46;;;9.46;81.24
60817;BME280;51921;51.518;-3.188;2023-02-04T08:39:52;103456.18;;;9.62;81.25
60817;BME280;51921;51.518;-3.188;2023-02-04T08:42:17;103460.77;;;9.22;82.38
60817;BME280;51921;51.518;-3.188;2023-02-04T08:44:42;103463.37;;;9.18;82.52
60817;BME280;51921;51.518;-3.188;2023-02-04T08:47:08;103465.33;;;9.27;80.57
60817;BME280;51921;51.518;-3.188;2023-02-04T08:49:33;103467.21;;;9.79;79.95
60817;BME280;51921;51.518;-3.188;2023-02-04T08:51:59;103465.68;;;10.31;76.42
60817;BME280;51921;51.518;-3.188;2023-02-04T08:54:24;103466.70;;;11.48;70.67
60817;BME280;51921;51.518;-3.188;2023-02-04T08:56:50;103471.27;;;9.46;78.37
60817;BME280;51921;51.518;-3.188;2023-02-04T08:59:15;103469.87;;;9.24;80.25
60817;BME280;51921;51.518;-3.188;2023-02-04T09:01:40;103466.05;;;10.04;76.19
60817;BME280;51921;51.518;-3.188;2023-02-04T09:04:06;103463.74;;;9.86;77.49
60817;BME280;51921;51.518;-3.188;2023-02-04T09:06:31;103465.69;;;9.86;76.96
60817;BME280;51921;51.518;-3.188;2023-02-04T09:08:57;103468.48;;;9.13;76.39
60817;BME280;51921;51.518;-3.188;2023-02-04T09:11:22;103473.58;;;9.48;78.66
60817;BME280;51921;51.518;-3.188;2023-02-04T09:13:48;103469.57;;;7.28;83.74
60817;BME280;51921;51.518;-3.188;2023-02-04T09:16:13;103475.52;;;8.36;84.50
60817;BME280;51921;51.518;-3.188;2023-02-04T09:18:39;103472.87;;;7.26;86.60
60817;BME280;51921;51.518;-3.188;2023-02-04T09:21:04;103471.97;;;6.63;97.42
60817;BME280;51921;51.518;-3.188;2023-02-04T09:23:29;103470.78;;;8.03;91.96
60817;BME280;51921;51.518;-3.188;2023-02-04T09:26:06;103467.25;;;7.71;94.53
60817;BME280;51921;51.518;-3.188;2023-02-04T09:28:20;103469.94;;;7.24;95.40
60817;BME280;51921;51.518;-3.188;2023-02-04T09:30:46;103476.46;;;6.82;97.56
60817;BME280;51921;51.518;-3.188;2023-02-04T09:33:13;103480.71;;;7.81;95.91
60817;BME280;51921;51.518;-3.188;2023-02-04T09:35:37;103478.19;;;7.72;96.77
60817;BME280;51921;51.518;-3.188;2023-02-04T09:38:02;103478.61;;;8.39;92.29
60817;BME280;51921;51.518;-3.188;2023-02-04T09:40:32;103478.01;;;8.81;88.29
60817;BME280;51921;51.518;-3.188;2023-02-04T09:42:54;103484.43;;;9.62;85.39
60817;BME280;51921;51.518;-3.188;2023-02-04T09:45:25;103489.48;;;10.04;82.46
60817;BME280;51921;51.518;-3.188;2023-02-04T09:47:44;103489.95;;;7.63;87.83
60817;BME280;51921;51.518;-3.188;2023-02-04T09:50:13;103494.65;;;6.38;98.29
60817;BME280;51921;51.518;-3.188;2023-02-04T09:52:34;103499.54;;;7.19;100.00
60817;BME280;51921;51.518;-3.188;2023-02-04T09:55:00;103497.29;;;6.36;100.00
60817;BME280;51921;51.518;-3.188;2023-02-04T09:57:26;103498.08;;;7.21;100.00
60817;BME280;51921;51.518;-3.188;2023-02-04T09:59:52;103498.01;;;8.82;89.93
60817;BME280;51921;51.518;-3.188;2023-02-04T10:02:21;103491.91;;;7.81;91.91
60817;BME280;51921;51.518;-3.188;2023-02-04T10:04:42;103495.09;;;8.98;90.52
60817;BME280;51921;51.518;-3.188;2023-02-04T10:07:11;103501.29;;;9.02;85.51
60817;BME280;51921;51.518;-3.188;2023-02-04T10:09:32;103498.28;;;6.39;98.04
60817;BME280;51921;51.518;-3.188;2023-02-04T10:11:57;103497.40;;;6.37;100.00
60817;BME280;51921;51.518;-3.188;2023-02-04T10:14:23;103493.02;;;6.36;100.00
60817;BME280;51921;51.518;-3.188;2023-02-04T10:16:57;103493.20;;;5.60;100.00
60817;BME280;51921;51.518;-3.188;2023-02-04T10:19:15;103493.00;;;7.23;100.00
60817;BME280;51921;51.518;-3.188;2023-02-04T10:21:40;103494.58;;;6.92;100.00
60817;BME280;51921;51.518;-3.188;2023-02-04T10:24:10;103496.69;;;5.73;100.00
60817;BME280;51921;51.518;-3.188;2023-02-04T10:26:31;103499.20;;;6.22;100.00
60817;BME280;51921;51.518;-3.188;2023-02-04T10:28:59;103497.30;;;5.23;100.00
60817;BME280;51921;51.518;-3.188;2023-02-04T10:31:28;103492.90;;;5.54;100.00
60817;BME280;51921;51.518;-3.188;2023-02-04T10:33:47;103493.31;;;6.45;100.00
60817;BME280;51921;51.518;-3.188;2023-02-04T10:36:12;103493.95;;;5.46;100.00
60817;BME280;51921;51.518;-3.188;2023-02-04T10:38:37;103486.97;;;8.10;100.00
60817;BME280;51921;51.518;-3.188;2023-02-04T10:41:04;103496.35;;;9.10;96.27
60817;BME280;51921;51.518;-3.188;2023-02-04T10:43:29;103501.57;;;9.21;93.30
60817;BME280;51921;51.518;-3.188;2023-02-04T10:45:56;103507.22;;;9.25;87.45
60817;BME280;51921;51.518;-3.188;2023-02-04T10:48:20;103513.61;;;9.56;84.85
60817;BME280;51921;51.518;-3.188;2023-02-04T10:50:46;103520.03;;;9.29;84.04
60817;BME280;51921;51.518;-3.188;2023-02-04T10:53:18;103524.17;;;8.89;82.88
60817;BME280;51921;51.518;-3.188;2023-02-04T10:55:36;103528.89;;;9.41;80.52
60817;BME280;51921;51.518;-3.188;2023-02-04T10:58:02;103531.44;;;8.62;84.60
60817;BME280;51921;51.518;-3.188;2023-02-04T11:00:27;103535.07;;;9.92;78.98
60817;BME280;51921;51.518;-3.188;2023-02-04T11:02:56;103534.89;;;9.15;81.55
60817;BME280;51921;51.518;-3.188;2023-02-04T11:05:19;103532.71;;;10.10;77.69
60817;BME280;51921;51.518;-3.188;2023-02-04T11:07:44;103528.71;;;9.09;81.11
60817;BME280;51921;51.518;-3.188;2023-02-04T11:10:13;103524.33;;;10.79;74.29
60817;BME280;51921;51.518;-3.188;2023-02-04T11:12:39;103524.00;;;10.31;75.01
60817;BME280;51921;51.518;-3.188;2023-02-04T11:15:00;103527.87;;;9.67;77.26
60817;BME280;51921;51.518;-3.188;2023-02-04T11:17:29;103520.84;;;10.30;75.59
60817;BME280;51921;51.518;-3.188;2023-02-04T11:19:50;103520.87;;;8.59;80.95
60817;BME280;51921;51.518;-3.188;2023-02-04T11:22:21;103526.09;;;10.00;77.01
60817;BME280;51921;51.518;-3.188;2023-02-04T11:24:41;103524.13;;;7.22;83.03
60817;BME280;51921;51.518;-3.188;2023-02-04T11:29:34;103528.51;;;8.40;84.15
60817;BME280;51921;51.518;-3.188;2023-02-04T11:32:01;103528.80;;;9.32;79.66
60817;BME280;51921;51.518;-3.188;2023-02-04T11:34:27;103528.26;;;9.25;79.55
60817;BME280;51921;51.518;-3.188;2023-02-04T11:36:55;103530.42;;;9.25;78.21
60817;BME280;51921;51.518;-3.188;2023-02-04T11:39:16;103526.48;;;8.92;78.41
60817;BME280;51921;51.518;-3.188;2023-02-04T11:41:44;103525.80;;;8.51;79.35
60817;BME280;51921;51.518;-3.188;2023-02-04T11:44:06;103525.62;;;9.25;76.74
60817;BME280;51921;51.518;-3.188;2023-02-04T11:46:31;103519.67;;;9.93;76.48
60817;BME280;51921;51.518;-3.188;2023-02-04T11:48:57;103511.33;;;9.84;78.16
60817;BME280;51921;51.518;-3.188;2023-02-04T11:51:27;103510.35;;;10.22;73.92
60817;BME280;51921;51.518;-3.188;2023-02-04T11:53:51;103511.58;;;9.39;74.08
60817;BME280;51921;51.518;-3.188;2023-02-04T11:56:16;103513.38;;;9.24;79.81
60817;BME280;51921;51.518;-3.188;2023-02-04T11:58:38;103512.07;;;9.58;77.74
60817;BME280;51921;51.518;-3.188;2023-02-04T12:01:03;103511.40;;;9.77;76.27
60817;BME280;51921;51.518;-3.188;2023-02-04T12:03:30;103516.13;;;9.92;75.05
60817;BME280;51921;51.518;-3.188;2023-02-04T12:05:54;103519.40;;;9.66;75.23
60817;BME280;51921;51.518;-3.188;2023-02-04T12:08:29;103520.82;;;9.60;73.82
60817;BME280;51921;51.518;-3.188;2023-02-04T12:10:47;103518.80;;;10.00;73.49
60817;BME280;51921;51.518;-3.188;2023-02-04T12:13:15;103518.43;;;10.52;70.70
60817;BME280;51921;51.518;-3.188;2023-02-04T12:15:36;103519.75;;;9.91;71.72
60817;BME280;51921;51.518;-3.188;2023-02-04T12:18:03;103516.92;;;7.67;77.50
60817;BME280;51921;51.518;-3.188;2023-02-04T12:20:27;103519.51;;;9.22;76.80
60817;BME280;51921;51.518;-3.188;2023-02-04T12:22:52;103515.68;;;10.61;72.54
60817;BME280;51921;51.518;-3.188;2023-02-04T12:25:18;103517.88;;;10.43;71.64
60817;BME280;51921;51.518;-3.188;2023-02-04T12:27:43;103518.96;;;10.80;71.77
60817;BME280;51921;51.518;-3.188;2023-02-04T12:30:11;103518.27;;;9.97;73.21
60817;BME280;51921;51.518;-3.188;2023-02-04T12:32:33;103517.42;;;9.96;72.51
60817;BME280;51921;51.518;-3.188;2023-02-04T12:34:59;103511.11;;;9.18;75.34
60817;BME280;51921;51.518;-3.188;2023-02-04T12:37:24;103515.76;;;9.63;72.91
60817;BME280;51921;51.518;-3.188;2023-02-04T12:39:49;103516.68;;;9.17;74.95
60817;BME280;51921;51.518;-3.188;2023-02-04T12:42:15;103515.05;;;10.83;69.99
60817;BME280;51921;51.518;-3.188;2023-02-04T12:44:40;103512.57;;;8.56;76.19
60817;BME280;51921;51.518;-3.188;2023-02-04T12:47:06;103515.62;;;9.86;74.88
60817;BME280;51921;51.518;-3.188;2023-02-04T12:49:31;103520.25;;;9.25;75.89
60817;BME280;51921;51.518;-3.188;2023-02-04T12:51:56;103519.93;;;9.70;75.13